Relevés horaires Matro (Suisse)


Relevés horaires à Matro - Mardi 25 Sept. 2018
Heure UTC1 Température [°C] Vent [km/h] Hum. [%] Pres.4 [hPa] Visi. [Km] Nébu. [octa] Préc.5 [mm] Cond.
2m. Res. Ros. Dir.2 Vit. Moy. Raf.3
19:00 2.7 2.7 0.1 O 1.9 -- 11.1 83 850(1.3/3h) -- -- -- --
18:00 3.2 1.2 0.2 ONO 7.4 -- 20.4 81 850(1.1/3h) -- -- -- --
17:00 3.8 1.4 -1.1 ONO 9.3 -- 14.8 70 850(0.7/3h) -- -- -- --
16:00 4.5 3.3 -0.9 ONO 5.6 -- 14.8 68 850(0.1/3h) -- -- -- --
15:00 5.9 4.3 0.6 S 7.4 -- 20.4 69 850(0.0/3h) -- -- -- --
14:00 4.6 2.8 -1.8 SSE 7.4 -- 20.4 63 850(0.0/3h) -- -- -- --
13:00 6.0 4.5 -0.8 SSO 7.4 -- 16.7 62 850(0.2/3h) -- -- -- --
12:00 5.2 5.2 -1.7 SSE 3.7 -- 14.8 61 850(0.1/3h) -- -- -- --
11:00 3.4 3.4 -1.6 NE 3.7 -- 14.8 70 850(0.3/3h) -- -- -- --
10:00 2.9 2.9 -3.4 N 3.7 -- 14.8 63 850(0.8/3h) -- -- -- --
09:00 2.6 2.6 -5.4 O 3.7 -- 14.8 55 850(1.1/3h) -- -- -- --
08:00 2.2 2.2 -6.0 ESE 1.9 -- 9.3 55 850(0.9/3h) -- -- -- --
07:00 1.7 1.7 -16.1 OSO 3.7 -- 9.3 25 850(0.6/3h) -- -- -- --
06:00 1.9 1.9 -14.7 N 1.9 -- 22.2 28 850(0.1/3h) -- -- -- --
05:00 1.5 -0.1 -11.8 N 5.6 -- 9.3 36 850(0.2/3h) -- -- -- --
04:00 1.2 -1.1 -14.4 ESE 7.4 -- 13.0 30 850(-0.1/3h) -- -- -- --
03:00 1.6 -0.7 -14.3 SSE 7.4 -- 22.2 29 850(0.3/3h) -- -- -- --
02:00 2.2 2.2 -17.1 E 3.7 -- 7.4 22 850(0.1/3h) -- -- -- --
01:00 2.3 0.8 -21.4 O 5.6 -- 22.2 15 850(0.1/3h) -- -- -- --
00:00 1.9 -2.6 -19.3 NO 18.5 -- 64.8 19 850(0.2/3h) -- -- -- --

1 Coordinated Universal Time. Actuellement il est 22:00 locale et 20:00 UTC.

2 Le vent souffle depuis la direction indiquée vers la direction oposée.

3 Les rafales max. sont disponible 40 min après l'heure du relevé.

4 Pour les stations d'altitude (plus de 600m) le géopotentiel du niveau le plus proche de la pression obligatoire est indiqué.

5 Les stations disposant d'un diffuseur peuvent indiquer "trace". Cela signifie que des précipitations ont touchés le sol mais que la quantité est inférieure à 0.1 mm.

Récapitulatif de la journée
Température [°C] Vent [km/h] Ensoleillement4 [h] Precipitations totale5 [mm] Pression [Hpa]
Min1 Max.2 Moy.3 Max. Min Max.
1.0 6.7 0 64.8 0 h 0 min 0 850.0 850.0

1 Température minimale relevée entre 18:00 UTC la veille et 18:00 UTC le jour donné.

2 Température maximale relevée entre 06:00 UTC le jour donné et 06:00 UTC le lendemain.

3 Vent moyen de la journée basé sur les relevés horaires.

4 Ensoleillement en heures relevé entre 06:00 UTC la veille et 06:00 UTC le jour donné.

5 Précipitations totales tombées entre 06:00 UTC la jour donné et 06:00 UTC le lendemain.

Graphiques horaires